Time;durP1;ratioP1;P1;durP2;ratioP2;P2;SDS_P1;SDS_P2;PMS_P1;PMS_P2;Temp;Humidity;BMP_temperature;BMP_pressure;BME280_temperature;BME280_humidity;BME280_pressure;Samples;Min_cycle;Max_cycle;Signal;HPM_P1;HPM_P2
2022/09/03 00:00:34;;;;;;;5.93;4.97;;;23.10;99.90;;;;;;6133396;23;20146;-94
2022/09/03 00:03:04;;;;;;;6.93;4.80;;;23.20;99.90;;;;;;6106743;23;20151;-94
2022/09/03 00:05:42;;;;;;;8.07;5.17;;;23.20;99.90;;;;;;6106559;23;20143;-96
2022/09/03 00:08:31;;;;;;;7.73;5.10;;;23.30;99.90;;;;;;6132442;23;20201;-96
2022/09/03 00:11:00;;;;;;;7.27;5.33;;;23.20;99.90;;;;;;6106912;23;20206;-96
2022/09/03 00:13:57;;;;;;;9.53;4.67;;;23.30;99.90;;;;;;6104215;23;20198;-94
2022/09/03 00:16:27;;;;;;;5.73;5.10;;;23.30;99.90;;;;;;6113229;23;20162;-94
2022/09/03 00:18:59;;;;;;;6.00;5.30;;;23.20;99.90;;;;;;6111285;23;20154;-96
2022/09/03 00:21:50;;;;;;;8.47;5.30;;;23.30;99.90;;;;;;6106253;23;20581;-93
2022/09/03 00:24:19;;;;;;;7.60;5.27;;;23.30;99.90;;;;;;6105512;23;20155;-96
2022/09/03 00:26:52;;;;;;;8.30;5.87;;;23.40;99.90;;;;;;6106382;23;20159;-95
2022/09/03 00:29:35;;;;;;;7.97;5.07;;;23.40;99.90;;;;;;6119019;23;20127;-95
2022/09/03 00:32:13;;;;;;;6.40;4.60;;;23.50;99.90;;;;;;6129768;23;20162;-93
2022/09/03 00:34:46;;;;;;;4.83;3.43;;;23.30;99.90;;;;;;6129629;23;20149;-93
2022/09/03 00:37:13;;;;;;;5.93;3.50;;;23.30;1.00;;;;;;6125964;23;20218;-94
2022/09/03 00:39:39;;;;;;;4.13;3.27;;;23.20;99.90;;;;;;6124851;23;20155;-95
2022/09/03 00:42:19;;;;;;;6.67;3.50;;;23.30;1.00;;;;;;6128000;23;20147;-94
2022/09/03 00:45:19;;;;;;;4.33;3.20;;;23.10;99.90;;;;;;6111996;23;20179;-95
2022/09/03 00:48:25;;;;;;;4.37;3.03;;;23.00;1.00;;;;;;6111319;23;20166;-96
2022/09/03 00:51:12;;;;;;;3.40;2.50;;;23.00;1.00;;;;;;6107817;23;20155;-94
2022/09/03 00:53:56;;;;;;;5.23;2.80;;;23.10;99.90;;;;;;6112884;23;20183;-95
2022/09/03 00:56:27;;;;;;;6.67;3.00;;;23.10;1.00;;;;;;6127309;23;20212;-94
2022/09/03 00:59:05;;;;;;;7.07;3.37;;;23.20;1.00;;;;;;6129738;23;20147;-92
2022/09/03 01:01:52;;;;;;;3.33;2.87;;;23.20;90.50;;;;;;6129204;23;20135;-94
2022/09/03 01:04:55;;;;;;;6.10;3.27;;;23.20;99.90;;;;;;6128530;23;20155;-95
2022/09/03 01:07:48;;;;;;;4.70;2.83;;;23.10;99.90;;;;;;6111379;23;20233;-95
2022/09/03 01:10:31;;;;;;;5.50;3.20;;;23.10;1.00;;;;;;6123093;23;20127;-92
2022/09/03 01:13:11;;;;;;;6.90;3.07;;;23.10;91.60;;;;;;6124268;23;20524;-94
2022/09/03 01:16:01;;;;;;;5.70;3.40;;;23.10;1.00;;;;;;6104309;23;20623;-95
2022/09/03 01:18:37;;;;;;;5.33;3.50;;;23.00;1.00;;;;;;6107356;23;20196;-94
2022/09/03 01:21:16;;;;;;;7.90;3.70;;;23.00;99.90;;;;;;6109543;23;20159;-94
2022/09/03 01:24:06;;;;;;;5.90;3.47;;;22.90;1.00;;;;;;6106148;23;20541;-94
2022/09/03 01:26:50;;;;;;;4.43;3.50;;;22.60;99.90;;;;;;6105938;23;20157;-95
2022/09/03 01:29:52;;;;;;;5.10;3.40;;;22.30;1.00;;;;;;6112637;23;20157;-94
2022/09/03 01:32:32;;;;;;;6.37;3.53;;;22.00;99.90;;;;;;6128201;23;20180;-93
2022/09/03 01:35:23;;;;;;;6.13;3.40;;;22.00;99.90;;;;;;6114781;23;20201;-94
2022/09/03 01:38:28;;;;;;;5.80;3.83;;;21.90;99.90;;;;;;6108218;23;20161;-94
2022/09/03 01:44:08;;;;;;;6.67;3.90;;;22.00;99.90;;;;;;6131541;23;20178;-95
2022/09/03 01:46:40;;;;;;;6.13;4.03;;;22.20;99.90;;;;;;6111956;23;20162;-94
2022/09/03 01:49:15;;;;;;;6.43;4.40;;;22.40;99.90;;;;;;6114876;23;20165;-94
2022/09/03 01:51:42;;;;;;;5.60;4.10;;;22.40;99.90;;;;;;6117471;23;20248;-94
2022/09/03 01:54:23;;;;;;;7.20;4.10;;;22.40;99.90;;;;;;6116855;23;20204;-96
2022/09/03 01:57:19;;;;;;;5.83;4.13;;;22.40;99.90;;;;;;6115763;23;20145;-95
2022/09/03 01:59:52;;;;;;;6.97;4.17;;;22.30;99.90;;;;;;6137622;23;20221;-96
2022/09/03 02:02:24;;;;;;;6.17;4.00;;;22.30;99.90;;;;;;6111286;23;20156;-96
2022/09/03 02:04:55;;;;;;;6.13;4.43;;;22.40;99.90;;;;;;6113847;23;20222;-95
2022/09/03 02:07:27;;;;;;;8.77;4.27;;;22.40;99.90;;;;;;6112683;23;20150;-94
2022/09/03 02:09:54;;;;;;;8.57;4.50;;;22.20;99.90;;;;;;6108046;23;20169;-95
2022/09/03 02:12:20;;;;;;;7.70;4.57;;;22.00;99.90;;;;;;6108857;23;20173;-95
2022/09/03 02:14:47;;;;;;;8.33;5.03;;;21.90;99.90;;;;;;6139357;23;20627;-95
2022/09/03 02:17:13;;;;;;;5.43;4.27;;;22.00;1.00;;;;;;6106973;23;20241;-95
2022/09/03 02:19:39;;;;;;;6.87;4.70;;;21.80;1.00;;;;;;6103593;23;20614;-95
2022/09/03 02:22:05;;;;;;;6.43;4.73;;;21.80;1.00;;;;;;6117198;23;20146;-94
2022/09/03 02:24:31;;;;;;;5.63;4.67;;;21.90;1.00;;;;;;6113534;23;20181;-95
2022/09/03 02:26:57;;;;;;;4.90;4.40;;;22.00;1.00;;;;;;6104764;23;20145;-95
2022/09/03 02:29:24;;;;;;;6.90;4.63;;;22.20;1.00;;;;;;6103564;23;20583;-96
2022/09/03 02:31:50;;;;;;;6.00;4.83;;;22.20;1.00;;;;;;6102883;23;20146;-96
2022/09/03 02:34:16;;;;;;;5.73;4.83;;;22.20;1.00;;;;;;6103004;23;20146;-96
2022/09/03 02:36:45;;;;;;;6.20;4.83;;;22.20;1.00;;;;;;6102573;23;20164;-96
2022/09/03 02:39:12;;;;;;;5.70;4.50;;;22.20;1.00;;;;;;6107320;23;20158;-95
2022/09/03 02:41:38;;;;;;;5.90;4.73;;;22.30;1.00;;;;;;6138070;23;20194;-96
2022/09/03 02:44:12;;;;;;;5.83;4.67;;;22.30;1.00;;;;;;6113372;23;20241;-94
2022/09/03 02:46:49;;;;;;;7.77;5.00;;;22.40;99.90;;;;;;6116681;23;20208;-95
2022/09/03 02:49:18;;;;;;;6.03;5.00;;;22.40;99.90;;;;;;6104314;23;20157;-95
2022/09/03 02:51:44;;;;;;;8.20;5.53;;;22.40;99.90;;;;;;6118831;23;20130;-93
2022/09/03 02:54:12;;;;;;;6.37;4.87;;;22.40;99.90;;;;;;6128002;23;20197;-95
2022/09/03 02:56:38;;;;;;;6.50;5.20;;;22.50;99.90;;;;;;6126601;23;20151;-94
2022/09/03 02:59:06;;;;;;;6.60;5.60;;;22.60;99.90;;;;;;6126985;23;20150;-94
2022/09/03 03:01:32;;;;;;;10.87;5.83;;;22.50;99.90;;;;;;6125957;23;20178;-94
2022/09/03 03:03:58;;;;;;;7.00;6.00;;;22.40;1.00;;;;;;6128022;23;20166;-94
2022/09/03 03:06:24;;;;;;;8.30;6.87;;;22.20;1.00;;;;;;6126813;23;20123;-93
2022/09/03 03:08:51;;;;;;;10.30;7.07;;;22.10;1.00;;;;;;6124712;23;20171;-93
2022/09/03 03:11:18;;;;;;;12.27;7.83;;;22.10;1.00;;;;;;6124426;23;20136;-93
2022/09/03 03:13:46;;;;;;;8.57;7.63;;;22.00;1.00;;;;;;6126085;23;20186;-95
2022/09/03 03:16:14;;;;;;;9.33;8.30;;;21.90;1.00;;;;;;6121413;23;20305;-95
2022/09/03 03:18:40;;;;;;;9.00;7.97;;;21.80;1.00;;;;;;6121013;23;20166;-94
2022/09/03 03:21:08;;;;;;;8.53;7.73;;;21.70;1.00;;;;;;6141703;23;20194;-94
2022/09/03 03:23:35;;;;;;;9.20;7.63;;;21.50;1.00;;;;;;6112490;23;20154;-96
2022/09/03 03:26:04;;;;;;;11.67;7.80;;;21.70;1.00;;;;;;6106036;23;20181;-95
2022/09/03 03:28:33;;;;;;;11.00;7.60;;;21.70;1.00;;;;;;6108635;23;20201;-95
2022/09/03 03:31:19;;;;;;;9.57;6.90;;;21.70;1.00;;;;;;6112531;23;20145;-94
2022/09/03 03:33:54;;;;;;;8.67;7.20;;;21.70;1.00;;;;;;6111040;23;20234;-94
2022/09/03 03:36:22;;;;;;;9.97;6.40;;;21.60;1.00;;;;;;6113289;23;20601;-94
2022/09/03 03:38:53;;;;;;;9.63;7.50;;;21.60;1.00;;;;;;6114383;23;20209;-93
2022/09/03 03:41:41;;;;;;;9.23;6.50;;;22.00;1.00;;;;;;6124157;23;20141;-94
2022/09/03 03:44:19;;;;;;;9.67;6.87;;;21.80;1.00;;;;;;6123555;23;20172;-94
2022/09/03 03:46:54;;;;;;;11.47;7.33;;;21.80;1.00;;;;;;6123807;23;20166;-95
2022/09/03 03:49:31;;;;;;;9.50;7.80;;;21.70;1.00;;;;;;6119497;23;20624;-95
2022/09/03 03:52:10;;;;;;;7.73;6.93;;;21.80;1.00;;;;;;6118506;23;20148;-96
2022/09/03 03:54:59;;;;;;;7.97;6.37;;;21.60;1.00;;;;;;6121716;23;20172;-95
2022/09/03 04:01:33;;;;;;;10.17;6.97;;;21.50;1.00;;;;;;6112700;23;20155;-93
2022/09/03 04:04:18;;;;;;;11.03;6.97;;;21.40;1.00;;;;;;6125548;23;20144;-94
2022/09/03 04:07:06;;;;;;;;;;;;;;;;;;;;;
2022/09/03 04:10:14;;;;;;;;;;;;;;;;;;;;;
2022/09/03 04:12:45;;;;;;;10.77;6.20;;;21.50;1.00;;;;;;6154452;23;20172;-94
2022/09/03 04:15:11;;;;;;;7.97;4.57;;;21.40;1.00;;;;;;6152426;23;20161;-95
2022/09/03 04:17:38;;;;;;;9.33;5.30;;;21.30;1.00;;;;;;6127446;23;20146;-94
2022/09/03 04:20:39;;;;;;;5.93;4.53;;;21.50;1.00;;;;;;6155180;23;20188;-93
2022/09/03 04:23:43;;;;;;;5.93;3.93;;;21.50;1.00;;;;;;6129928;23;20132;-94
2022/09/03 04:26:14;;;;;;;4.30;3.47;;;21.60;1.00;;;;;;6153808;23;20136;-94
2022/09/03 04:35:28;;;;;;;4.90;3.60;;;21.80;1.00;;;;;;6136119;23;20204;-95
2022/09/03 04:38:34;;;;;;;;;;;;;;;;;;;;;
2022/09/03 04:41:01;;;;;;;5.40;3.63;;;21.70;1.00;;;;;;6118552;23;20159;-95
2022/09/03 04:43:30;;;;;;;4.90;3.30;;;21.70;1.00;;;;;;6115570;23;20179;-93
2022/09/03 04:46:00;;;;;;;5.17;3.43;;;21.60;1.00;;;;;;6153406;23;20146;-95
2022/09/03 04:48:35;;;;;;;4.93;3.77;;;21.50;1.00;;;;;;6129956;23;20134;-94
2022/09/03 04:51:06;;;;;;;7.00;3.50;;;21.40;1.00;;;;;;6129224;23;20143;-92
2022/09/03 04:53:36;;;;;;;4.63;3.70;;;21.30;1.00;;;;;;6128472;23;20429;-92
2022/09/03 04:56:17;;;;;;;3.50;3.03;;;21.40;1.00;;;;;;6128731;23;20144;-93
2022/09/03 04:59:01;;;;;;;4.03;3.60;;;21.30;1.00;;;;;;6123640;23;20570;-95
2022/09/03 05:01:29;;;;;;;5.87;3.37;;;21.30;1.00;;;;;;6124230;23;20171;-94
2022/09/03 05:04:04;;;;;;;4.37;3.20;;;21.40;1.00;;;;;;6121057;23;20167;-95
2022/09/03 05:06:32;;;;;;;4.47;3.10;;;21.60;1.00;;;;;;6148421;23;20184;-93
2022/09/03 05:08:59;;;;;;;5.17;3.50;;;21.50;1.00;;;;;;6118080;23;20151;-94
2022/09/03 05:11:26;;;;;;;5.30;3.60;;;21.50;1.00;;;;;;6114021;23;20164;-94
2022/09/03 05:13:54;;;;;;;4.73;3.10;;;21.60;1.00;;;;;;6112148;23;20264;-95
2022/09/03 05:16:31;;;;;;;7.07;3.40;;;21.80;1.00;;;;;;6104492;23;20187;-94
2022/09/03 05:19:01;;;;;;;5.83;3.83;;;21.90;1.00;;;;;;6114780;23;20164;-94
2022/09/03 05:21:53;;;;;;;5.13;3.50;;;22.00;1.00;;;;;;6113506;23;20145;-94
2022/09/03 05:24:19;;;;;;;5.10;3.67;;;21.80;1.00;;;;;;6102893;23;20169;-95
2022/09/03 05:26:45;;;;;;;4.60;3.40;;;22.00;1.00;;;;;;6113877;23;20164;-93
2022/09/03 05:29:10;;;;;;;5.63;3.83;;;22.00;1.00;;;;;;6113082;23;20169;-94
2022/09/03 05:31:38;;;;;;;7.00;3.80;;;22.00;1.00;;;;;;6108138;23;20162;-95
2022/09/03 05:34:05;;;;;;;6.70;3.57;;;22.10;1.00;;;;;;6112813;23;20197;-96
2022/09/03 05:36:34;;;;;;;7.43;4.40;;;22.10;1.00;;;;;;6118470;23;20208;-95
2022/09/03 05:38:59;;;;;;;5.50;3.97;;;22.10;1.00;;;;;;6119500;23;20153;-91
2022/09/03 05:41:26;;;;;;;8.47;4.43;;;22.10;1.00;;;;;;6112167;23;20178;-96
2022/09/03 05:43:54;;;;;;;6.87;3.97;;;22.10;1.00;;;;;;6121814;23;20236;-95
2022/09/03 05:46:41;;;;;;;4.50;4.00;;;22.10;1.00;;;;;;6140029;23;20200;-96
2022/09/03 05:49:10;;;;;;;9.23;5.03;;;22.00;1.00;;;;;;6130132;23;20160;-96
2022/09/03 05:51:41;;;;;;;7.50;4.27;;;21.90;1.00;;;;;;6105688;23;20163;-93
2022/09/03 05:54:08;;;;;;;9.00;4.60;;;22.00;1.00;;;;;;6103660;23;20193;-93
2022/09/03 05:56:35;;;;;;;5.80;4.53;;;22.00;1.00;;;;;;6103577;23;20200;-94
2022/09/03 05:59:04;;;;;;;7.00;4.17;;;22.10;1.00;;;;;;6104318;23;20176;-94
2022/09/03 06:01:43;;;;;;;5.07;4.43;;;22.30;1.00;;;;;;6108648;23;20158;-94
2022/09/03 06:04:14;;;;;;;9.53;4.67;;;22.30;1.00;;;;;;6114537;23;20154;-95
2022/09/03 06:06:42;;;;;;;8.33;4.43;;;22.30;1.00;;;;;;6117588;23;20150;-96
2022/09/03 06:09:17;;;;;;;8.33;4.67;;;22.30;1.00;;;;;;6115546;23;20162;-94
2022/09/03 06:11:44;;;;;;;7.40;4.30;;;22.50;1.00;;;;;;6107013;23;20149;-94
2022/09/03 06:14:12;;;;;;;6.63;4.67;;;22.50;1.00;;;;;;6103683;23;20284;-94
2022/09/03 06:16:44;;;;;;;7.53;5.00;;;22.60;1.00;;;;;;6103689;23;20158;-94
2022/09/03 06:19:11;;;;;;;7.70;5.33;;;22.60;1.00;;;;;;6106290;23;20606;-93
2022/09/03 06:21:41;;;;;;;6.03;4.93;;;22.60;1.00;;;;;;6109040;23;20159;-93
2022/09/03 06:24:10;;;;;;;6.90;5.60;;;22.60;1.00;;;;;;6105672;23;20161;-93
2022/09/03 06:26:37;;;;;;;7.57;5.77;;;22.70;1.00;;;;;;6103317;23;20158;-93
2022/09/03 06:29:03;;;;;;;8.33;5.97;;;22.60;1.00;;;;;;6102665;23;20149;-92
2022/09/03 06:31:30;;;;;;;6.27;5.20;;;22.60;1.00;;;;;;6102191;23;20163;-94
2022/09/03 06:33:56;;;;;;;9.23;5.87;;;22.60;1.00;;;;;;6105777;23;20212;-96
2022/09/03 06:36:23;;;;;;;9.27;5.60;;;22.50;1.00;;;;;;6101759;23;20143;-92
2022/09/03 06:38:54;;;;;;;8.43;5.40;;;22.50;1.00;;;;;;6102348;23;20156;-93
2022/09/03 06:41:26;;;;;;;12.60;5.70;;;22.50;1.00;;;;;;6106346;23;20652;-96
2022/09/03 06:44:03;;;;;;;11.10;5.57;;;22.50;1.00;;;;;;6105414;23;20178;-94
2022/09/03 06:46:35;;;;;;;7.90;5.20;;;22.20;1.00;;;;;;6108047;23;20171;-91
2022/09/03 06:54:09;;;;;;;7.93;4.60;;;22.40;1.00;;;;;;6121058;23;20253;-95
2022/09/03 06:56:57;;;;;;;5.60;3.00;;;22.60;1.00;;;;;;6085042;23;20150;-96
2022/09/03 06:59:42;;;;;;;4.97;2.90;;;22.60;1.00;;;;;;6100561;23;20158;-95
2022/09/03 07:02:27;;;;;;;4.90;2.53;;;22.50;99.90;;;;;;6108497;23;20156;-96
2022/09/03 07:04:59;;;;;;;5.53;2.97;;;22.70;99.90;;;;;;6065204;23;21279;-92
2022/09/03 07:07:51;;;;;;;4.53;2.57;;;22.70;99.90;;;;;;6103421;23;20187;-96
2022/09/03 07:10:20;;;;;;;5.27;2.90;;;22.80;99.90;;;;;;6115026;23;20226;-96
2022/09/03 07:15:26;;;;;;;6.17;3.00;;;22.90;99.90;;;;;;6162684;23;20188;-95
2022/09/03 07:18:21;;;;;;;6.37;3.10;;;22.80;99.90;;;;;;6132865;23;20145;-94
2022/09/03 07:20:58;;;;;;;3.40;2.50;;;22.90;99.90;;;;;;6154329;23;20212;-94
2022/09/03 07:23:29;;;;;;;5.23;2.90;;;22.90;99.90;;;;;;6132891;23;20161;-93
2022/09/03 07:26:04;;;;;;;8.30;3.00;;;22.90;99.90;;;;;;6157417;23;20588;-93
2022/09/03 07:28:35;;;;;;;6.67;2.90;;;23.00;99.90;;;;;;6156787;23;20170;-92
2022/09/03 07:31:13;;;;;;;6.13;3.13;;;23.00;99.90;;;;;;6153710;23;20161;-93
2022/09/03 07:33:40;;;;;;;4.80;2.40;;;23.10;99.90;;;;;;6127446;23;20194;-92
2022/09/03 07:36:11;;;;;;;10.10;3.13;;;22.90;99.90;;;;;;6146659;23;20153;-93
2022/09/03 07:38:43;;;;;;;6.70;2.80;;;23.10;99.90;;;;;;6148728;23;20161;-92
2022/09/03 07:41:13;;;;;;;7.47;3.10;;;23.20;99.90;;;;;;6147852;23;20150;-94
2022/09/03 07:43:45;;;;;;;8.73;2.60;;;23.30;28.20;;;;;;6117983;23;20213;-94
2022/09/03 07:46:22;;;;;;;7.37;2.70;;;23.30;1.00;;;;;;6144107;23;20147;-93
2022/09/03 07:49:07;;;;;;;7.13;3.00;;;23.50;1.00;;;;;;6139425;23;20158;-95
2022/09/03 07:51:41;;;;;;;6.57;2.80;;;23.50;1.00;;;;;;6144714;23;20147;-93
2022/09/03 07:54:11;;;;;;;8.03;3.00;;;23.50;1.00;;;;;;6153709;23;20261;-96
2022/09/03 08:02:32;;;;;;;4.87;3.07;;;23.70;1.00;;;;;;6088131;23;20210;-96
2022/09/03 08:11:05;;;;;;;7.57;3.00;;;23.90;1.00;;;;;;6096393;23;20163;-95
2022/09/03 08:14:09;;;;;;;6.37;3.13;;;23.90;1.00;;;;;;6084773;23;20183;-96
2022/09/03 08:16:41;;;;;;;5.90;2.93;;;23.90;1.00;;;;;;6086467;23;20161;-92
2022/09/03 08:19:07;;;;;;;5.07;3.07;;;23.90;5.90;;;;;;6076166;23;20569;-92
2022/09/03 08:21:57;;;;;;;6.13;2.93;;;24.00;9.00;;;;;;6080851;23;20159;-95
2022/09/03 08:25:03;;;;;;;5.67;3.07;;;24.10;1.00;;;;;;6086821;23;20164;-96
2022/09/03 08:27:55;;;;;;;5.97;3.30;;;24.20;21.80;;;;;;6157870;23;20201;-96
2022/09/03 08:48:12;;;;;;;7.43;3.73;;;24.20;99.90;;;;;;6164388;23;20210;-96
2022/09/03 08:50:50;;;;;;;7.03;3.53;;;24.00;99.90;;;;;;6071991;23;20199;-96
2022/09/03 08:53:57;;;;;;;8.47;4.53;;;24.10;99.90;;;;;;6120251;23;20191;-93
2022/09/03 08:59:36;;;;;;;6.93;4.40;;;24.20;99.90;;;;;;6151201;23;20444;-96
2022/09/03 09:02:33;;;;;;;6.33;3.90;;;24.10;99.90;;;;;;6145129;23;20158;-96
2022/09/03 09:05:37;;;;;;;7.20;4.27;;;24.10;99.90;;;;;;6146820;23;20146;-94
2022/09/03 09:08:12;;;;;;;6.57;3.80;;;24.10;99.90;;;;;;6159952;23;20583;-87
2022/09/03 09:11:20;;;;;;;4.93;4.00;;;24.30;99.90;;;;;;6158110;23;20134;-84
2022/09/03 09:14:06;;;;;;;7.50;3.77;;;24.50;99.90;;;;;;6090837;23;20224;-83
2022/09/03 09:16:49;;;;;;;4.33;3.83;;;24.70;99.90;;;;;;6155335;23;20158;-83
2022/09/03 09:19:59;;;;;;;6.47;4.10;;;25.00;99.90;;;;;;6137332;23;20154;-96
2022/09/03 09:23:26;;;;;;;9.90;4.50;;;25.10;99.90;;;;;;6167448;23;20154;-95
2022/09/03 09:26:49;;;;;;;4.97;4.07;;;25.10;99.90;;;;;;6174520;23;20198;-92
2022/09/03 09:29:15;;;;;;;7.37;4.23;;;25.20;99.90;;;;;;6127188;23;20162;-92
2022/09/03 09:31:46;;;;;;;7.07;4.40;;;25.00;99.90;;;;;;6140354;23;20160;-95
2022/09/03 09:35:03;;;;;;;4.90;3.70;;;25.10;99.90;;;;;;6121652;23;20191;-95
2022/09/03 09:38:17;;;;;;;6.27;4.37;;;25.00;87.50;;;;;;6065051;23;20141;-93
2022/09/03 09:40:44;;;;;;;6.47;4.20;;;24.70;99.90;;;;;;6096536;23;20205;-93
2022/09/03 09:43:46;;;;;;;;;;;;;;;;;;;;;
2022/09/03 09:46:29;;;;;;;7.93;4.10;;;24.60;99.90;;;;;;6108937;23;20167;-91
2022/09/03 09:49:26;;;;;;;6.67;4.80;;;24.80;99.90;;;;;;6105813;23;20139;-91
2022/09/03 09:52:06;;;;;;;6.50;4.63;;;24.80;99.90;;;;;;6078935;23;20152;-91
2022/09/03 09:54:34;;;;;;;7.37;4.53;;;24.70;99.90;;;;;;6083278;23;20159;-93
2022/09/03 09:57:17;;;;;;;9.83;5.17;;;24.80;99.90;;;;;;6096080;23;20162;-94
2022/09/03 10:06:53;;;;;;;7.47;5.37;;;24.90;99.90;;;;;;6171318;23;20567;-95
2022/09/03 10:09:30;;;;;;;6.17;5.17;;;25.00;99.90;;;;;;6148722;23;20155;-95
2022/09/03 10:12:34;;;;;;;7.60;4.80;;;24.90;99.90;;;;;;6158020;23;20138;-96
2022/09/03 10:15:06;;;;;;;6.60;4.73;;;25.00;99.90;;;;;;6155217;23;20305;-94
2022/09/03 10:17:41;;;;;;;6.43;4.67;;;25.10;99.90;;;;;;6154096;23;20154;-94
2022/09/03 10:20:30;;;;;;;9.50;5.43;;;25.20;99.90;;;;;;6157795;23;20142;-94
2022/09/03 10:23:30;;;;;;;8.50;5.07;;;25.40;99.90;;;;;;6183478;23;20241;-94
2022/09/03 10:29:22;;;;;;;10.93;5.17;;;25.90;99.90;;;;;;6174125;23;20156;-94
2022/09/03 10:32:45;;;;;;;7.63;5.50;;;26.00;99.90;;;;;;6166335;23;20182;-94
2022/09/03 10:36:00;;;;;;;6.47;5.30;;;25.80;99.90;;;;;;6046516;23;20177;-95
2022/09/03 10:38:35;;;;;;;11.03;5.87;;;25.60;99.90;;;;;;6078742;23;20154;-95
2022/09/03 10:41:35;;;;;;;7.63;5.80;;;25.50;99.90;;;;;;6125154;23;20875;-94
2022/09/03 10:44:34;;;;;;;6.30;5.67;;;25.90;99.90;;;;;;6142401;23;20167;-95
2022/09/03 10:47:41;;;;;;;6.73;5.60;;;26.00;99.90;;;;;;6153591;23;20123;-92
2022/09/03 10:50:17;;;;;;;8.53;5.83;;;26.50;16.00;;;;;;6146514;23;20158;-92
2022/09/03 10:53:38;;;;;;;11.18;5.93;;;26.50;1.00;;;;;;6147571;23;20189;-93
2022/09/03 10:56:16;;;;;;;7.63;5.40;;;26.80;1.00;;;;;;6119867;23;20596;-94
2022/09/03 10:59:34;;;;;;;8.23;6.50;;;26.70;1.00;;;;;;6153555;23;20165;-91
2022/09/03 11:02:14;;;;;;;8.97;6.73;;;26.30;1.00;;;;;;6079191;23;20194;-95
2022/09/03 11:05:24;;;;;;;10.37;5.50;;;26.20;1.00;;;;;;6139094;23;20163;-95
2022/09/03 11:08:15;;;;;;;6.97;5.40;;;26.20;1.00;;;;;;6112813;23;20151;-96
2022/09/03 11:17:47;;;;;;;5.47;4.63;;;26.70;1.00;;;;;;6134125;23;20217;-95
2022/09/03 11:20:23;;;;;;;6.77;5.70;;;26.90;99.90;;;;;;6111250;23;20159;-96
2022/09/03 11:23:19;;;;;;;7.85;5.38;;;26.60;1.00;;;;;;6124901;23;20154;-94
2022/09/03 11:26:33;;;;;;;6.95;5.65;;;26.70;1.00;;;;;;6151942;23;20131;-93
2022/09/03 11:29:17;;;;;;;8.70;5.53;;;26.90;99.90;;;;;;6145357;23;20158;-96
2022/09/03 11:32:22;;;;;;;7.07;5.43;;;27.10;99.90;;;;;;6136888;23;20210;-93
2022/09/03 11:34:58;;;;;;;5.80;5.15;;;27.10;99.90;;;;;;6139982;23;20150;-95
2022/09/03 11:37:30;;;;;;;7.57;5.50;;;26.80;99.90;;;;;;6115398;23;20620;-93
2022/09/03 11:40:02;;;;;;;7.77;6.13;;;26.30;1.00;;;;;;6136223;23;20172;-94
2022/09/03 11:42:37;;;;;;;6.53;5.73;;;26.10;1.00;;;;;;6106764;23;20163;-93
2022/09/03 11:49:02;;;;;;;11.20;6.87;;;26.00;1.00;;;;;;6117593;23;20166;-94
2022/09/03 11:51:54;;;;;;;8.93;6.50;;;25.60;99.90;;;;;;6112991;23;20232;-93
2022/09/03 11:54:22;;;;;;;8.33;6.30;;;25.50;99.90;;;;;;6152747;23;20187;-93
2022/09/03 11:56:50;;;;;;;7.80;6.50;;;25.70;99.90;;;;;;6144123;23;20207;-93
2022/09/03 11:59:23;;;;;;;9.63;6.57;;;25.60;99.90;;;;;;6117943;23;20644;-94
2022/09/03 12:02:08;;;;;;;9.50;5.90;;;25.50;99.90;;;;;;6108879;23;20178;-92
2022/09/03 12:05:06;;;;;;;7.13;5.47;;;25.70;99.90;;;;;;6114753;23;20181;-94
2022/09/03 12:07:54;;;;;;;9.17;6.00;;;26.10;55.80;;;;;;6121458;23;20151;-93
2022/09/03 12:10:39;;;;;;;6.10;5.50;;;26.30;1.00;;;;;;6114591;23;20151;-93
2022/09/03 12:14:13;;;;;;;5.53;4.83;;;26.50;1.00;;;;;;6110819;23;20179;-93
2022/09/03 12:17:17;;;;;;;5.70;4.65;;;26.50;1.00;;;;;;6117404;23;20166;-93
2022/09/03 12:19:55;;;;;;;6.67;4.10;;;26.80;99.90;;;;;;6128064;23;20159;-94
2022/09/03 12:22:27;;;;;;;5.15;4.05;;;27.00;99.90;;;;;;6153669;23;20222;-94
2022/09/03 12:24:56;;;;;;;6.63;4.22;;;27.10;99.90;;;;;;6129265;23;20154;-93
2022/09/03 12:27:34;;;;;;;7.10;4.25;;;27.20;51.30;;;;;;6128491;23;20167;-93
2022/09/03 12:30:12;;;;;;;7.75;4.15;;;27.30;4.40;;;;;;6113001;23;20158;-93
2022/09/03 12:33:05;;;;;;;4.15;3.75;;;27.30;99.90;;;;;;6113021;23;20237;-94
2022/09/03 12:35:39;;;;;;;5.50;3.92;;;27.50;28.30;;;;;;6113399;23;20159;-92
2022/09/03 12:38:06;;;;;;;6.35;3.85;;;27.50;99.90;;;;;;6110547;23;20662;-92
2022/09/03 12:40:32;;;;;;;4.82;3.70;;;27.50;1.00;;;;;;6115103;23;20190;-92
2022/09/03 12:43:18;;;;;;;5.35;4.40;;;27.50;99.90;;;;;;6124475;23;20151;-92
2022/09/03 12:45:49;;;;;;;4.75;3.88;;;27.60;1.00;;;;;;6124411;23;20175;-93
2022/09/03 12:48:20;;;;;;;5.20;3.70;;;27.80;99.90;;;;;;6118214;23;20158;-94
2022/09/03 12:51:15;;;;;;;;;;;;;;;;;;;;;
2022/09/03 12:53:41;;;;;;;5.57;3.55;;;28.20;48.20;;;;;;6137369;23;20214;-90
2022/09/03 12:56:09;;;;;;;5.45;3.92;;;28.30;1.00;;;;;;6137921;23;20190;-92
2022/09/03 12:59:15;;;;;;;5.38;3.45;;;28.40;99.90;;;;;;6105588;23;20615;-92
2022/09/03 13:01:51;;;;;;;5.30;3.55;;;28.30;99.90;;;;;;5964646;23;20195;-93
2022/09/03 13:04:55;;;;;;;7.13;3.33;;;28.40;1.00;;;;;;6108883;23;20173;-93
2022/09/03 13:07:53;;;;;;;4.82;3.08;;;28.30;1.00;;;;;;6065425;23;20169;-94
2022/09/03 13:10:32;;;;;;;4.07;2.88;;;27.80;99.90;;;;;;6086959;23;20155;-94
2022/09/03 13:13:02;;;;;;;4.80;2.70;;;27.70;99.90;;;;;;6105309;23;20183;-91
2022/09/03 13:15:29;;;;;;;4.43;3.08;;;27.70;1.00;;;;;;6104379;23;20143;-92
2022/09/03 13:18:02;;;;;;;4.63;2.53;;;27.90;1.00;;;;;;6103881;23;20242;-94
2022/09/03 13:21:22;;;;;;;5.00;2.70;;;28.20;99.90;;;;;;6141823;23;20190;-93
2022/09/03 13:24:18;;;;;;;8.57;2.83;;;28.40;99.90;;;;;;6039579;23;20596;-94
2022/09/03 13:27:39;;;;;;;5.10;2.60;;;28.30;99.90;;;;;;6092611;23;20155;-94
2022/09/03 13:30:18;;;;;;;7.65;3.60;;;28.20;1.00;;;;;;5988988;23;20154;-94
2022/09/03 13:33:00;;;;;;;4.40;3.10;;;28.50;1.00;;;;;;6118650;23;20183;-93
2022/09/03 13:35:58;;;;;;;7.38;2.97;;;28.50;1.00;;;;;;6107695;23;20158;-93
2022/09/03 13:38:53;;;;;;;3.42;2.42;;;28.50;99.90;;;;;;6109681;23;20167;-92
2022/09/03 13:41:47;;;;;;;4.45;3.15;;;28.00;99.90;;;;;;6095248;23;20615;-92
2022/09/03 13:44:40;;;;;;;5.53;3.25;;;28.10;99.90;;;;;;6105154;23;20151;-94
2022/09/03 13:47:38;;;;;;;4.65;2.70;;;28.50;99.90;;;;;;6106181;23;20155;-91
2022/09/03 13:50:25;;;;;;;3.50;2.50;;;28.90;30.00;;;;;;6114355;23;20147;-92
2022/09/03 13:52:56;;;;;;;8.00;2.20;;;29.20;99.90;;;;;;6109030;23;20225;-93
2022/09/03 13:55:49;;;;;;;4.38;2.45;;;29.30;1.00;;;;;;6130330;23;20155;-93
2022/09/03 13:58:34;;;;;;;2.42;2.00;;;29.10;1.00;;;;;;6104059;23;20547;-92
2022/09/03 14:01:19;;;;;;;2.70;2.22;;;29.20;1.00;;;;;;6082631;23;20210;-94
2022/09/03 14:03:52;;;;;;;2.63;1.83;;;29.30;1.00;;;;;;6130781;23;20234;-94
2022/09/03 14:06:39;;;;;;;3.95;2.28;;;29.40;1.00;;;;;;6130495;23;20221;-93
2022/09/03 14:09:20;;;;;;;3.65;2.53;;;29.40;1.00;;;;;;6105680;23;20580;-94
2022/09/03 14:12:12;;;;;;;2.97;2.35;;;29.30;1.00;;;;;;6106641;23;20485;-94
2022/09/03 14:15:03;;;;;;;3.92;2.58;;;28.70;1.00;;;;;;6106257;23;20170;-93
2022/09/03 14:18:08;;;;;;;3.28;2.63;;;28.40;99.90;;;;;;6106644;23;20151;-95
2022/09/03 14:20:55;;;;;;;3.58;2.63;;;27.50;68.70;;;;;;6105832;23;20157;-94
2022/09/03 14:23:58;;;;;;;4.53;3.20;;;27.20;99.90;;;;;;6103834;23;20170;-93
2022/09/03 14:26:36;;;;;;;4.43;3.15;;;27.10;99.90;;;;;;6105331;23;20151;-93
2022/09/03 14:29:11;;;;;;;5.53;3.20;;;26.80;1.00;;;;;;6105148;23;20572;-93
2022/09/03 14:31:50;;;;;;;4.03;2.97;;;26.70;99.90;;;;;;6128446;23;20154;-92
2022/09/03 14:34:53;;;;;;;4.70;3.10;;;26.80;99.90;;;;;;6128676;23;20190;-92
2022/09/03 14:37:41;;;;;;;3.53;3.00;;;26.90;99.90;;;;;;6104145;23;20452;-93
2022/09/03 14:40:28;;;;;;;5.40;2.87;;;27.10;1.00;;;;;;6102886;23;20233;-94
2022/09/03 14:43:32;;;;;;;4.20;2.97;;;27.00;99.90;;;;;;6128896;23;20234;-94
2022/09/03 14:46:24;;;;;;;3.53;3.00;;;26.80;1.00;;;;;;6099507;23;20151;-93
2022/09/03 14:49:38;;;;;;;3.42;2.78;;;26.90;1.00;;;;;;6105799;23;20155;-95
2022/09/03 14:52:36;;;;;;;4.10;3.03;;;27.00;99.90;;;;;;6071453;23;20158;-94
2022/09/03 14:55:45;;;;;;;4.47;2.73;;;27.10;99.90;;;;;;6131658;23;20171;-92
2022/09/03 14:58:42;;;;;;;4.60;3.25;;;27.20;99.90;;;;;;6116819;23;20243;-93
2022/09/03 15:01:38;;;;;;;5.07;3.05;;;27.40;99.90;;;;;;6110470;23;20584;-92
2022/09/03 15:04:30;;;;;;;4.20;2.92;;;27.50;1.00;;;;;;6123746;23;20167;-94
2022/09/03 15:07:33;;;;;;;4.05;3.08;;;27.60;1.00;;;;;;6151374;23;20210;-93
2022/09/03 15:10:19;;;;;;;5.20;3.15;;;27.50;1.00;;;;;;6116172;23;20178;-94
2022/09/03 15:13:28;;;;;;;4.75;3.05;;;27.20;1.00;;;;;;6141389;23;20192;-92
2022/09/03 15:16:10;;;;;;;4.70;3.70;;;27.40;1.00;;;;;;6114687;23;20143;-92
2022/09/03 15:18:57;;;;;;;5.78;3.67;;;27.10;1.00;;;;;;6126475;23;20159;-92
2022/09/03 15:22:04;;;;;;;4.80;3.63;;;27.10;1.00;;;;;;6128087;23;20151;-93
2022/09/03 15:24:32;;;;;;;4.33;3.10;;;27.00;1.00;;;;;;6153044;23;20154;-94